createdAt,value
2018-06-05T00:02:17.458Z,23.80
2018-06-05T00:05:20.361Z,23.40
2018-06-05T00:08:23.280Z,23.20
2018-06-05T00:11:26.226Z,23.03
2018-06-05T00:14:30.032Z,24.70
2018-06-05T00:17:32.956Z,26.13
2018-06-05T00:20:35.907Z,26.73
2018-06-05T00:23:38.843Z,24.30
2018-06-05T00:26:41.829Z,26.40
2018-06-05T00:29:44.801Z,26.30
2018-06-05T00:32:47.789Z,25.00
2018-06-05T00:35:50.853Z,26.83
2018-06-05T00:38:53.774Z,24.10
2018-06-05T00:41:56.680Z,25.30
2018-06-05T00:44:59.707Z,24.20
2018-06-05T00:48:02.625Z,25.83
2018-06-05T00:51:22.727Z,24.67
2018-06-05T00:54:25.625Z,26.00
2018-06-05T00:57:28.558Z,27.93
2018-06-05T01:00:31.620Z,24.43
2018-06-05T01:03:34.638Z,25.57
2018-06-05T01:06:37.705Z,24.97
2018-06-05T01:09:40.652Z,24.83
2018-06-05T01:12:43.535Z,26.80
2018-06-05T01:15:46.529Z,25.07
2018-06-05T01:18:49.553Z,25.87
2018-06-05T01:21:53.196Z,24.90
2018-06-05T01:24:56.740Z,24.50
2018-06-05T01:27:59.805Z,26.00
2018-06-05T01:31:02.737Z,28.20
2018-06-05T01:34:05.649Z,29.07
2018-06-05T01:37:08.593Z,26.57
2018-06-05T01:40:13.446Z,27.93
2018-06-05T01:43:16.616Z,28.47
2018-06-05T01:46:22.034Z,29.07
2018-06-05T01:49:29.623Z,26.60
2018-06-05T01:52:34.585Z,26.33
2018-06-05T01:55:37.515Z,29.27
2018-06-05T01:58:40.805Z,29.17
2018-06-05T02:01:43.965Z,29.00
2018-06-05T02:04:46.911Z,27.33
2018-06-05T02:07:49.812Z,30.03
2018-06-05T02:10:52.836Z,29.53
2018-06-05T02:13:55.749Z,28.30
2018-06-05T02:16:58.614Z,28.70
2018-06-05T02:20:01.548Z,29.57
2018-06-05T02:23:04.501Z,26.87
2018-06-05T02:26:07.415Z,30.33
2018-06-05T02:29:10.330Z,30.87
2018-06-05T02:32:13.256Z,30.47
2018-06-05T02:35:16.177Z,29.70
2018-06-05T02:38:19.272Z,29.80
2018-06-05T02:41:22.170Z,29.00
2018-06-05T02:44:25.072Z,28.90
2018-06-05T02:47:28.992Z,27.23
2018-06-05T02:50:36.022Z,27.37
2018-06-05T02:53:43.221Z,28.90
2018-06-05T02:56:50.309Z,29.23
2018-06-05T02:59:53.744Z,31.40
2018-06-05T03:02:58.258Z,30.47
2018-06-05T03:06:02.901Z,29.50
2018-06-05T03:09:08.244Z,30.20
2018-06-05T03:12:11.555Z,30.93
2018-06-05T03:15:28.253Z,31.60
2018-06-05T03:18:34.353Z,31.80
2018-06-05T03:21:38.185Z,31.57
2018-06-05T03:24:41.614Z,36.73
2018-06-05T03:27:51.690Z,35.17
2018-06-05T03:30:55.656Z,38.40
2018-06-05T03:33:59.605Z,35.80
2018-06-05T03:37:03.391Z,35.77
2018-06-05T03:40:07.970Z,34.60
2018-06-05T03:43:12.482Z,35.53
2018-06-05T03:46:16.730Z,35.93
2018-06-05T03:49:19.687Z,36.10
2018-06-05T03:52:22.577Z,35.77
2018-06-05T03:55:25.521Z,35.30
2018-06-05T03:58:28.396Z,37.53
2018-06-05T04:01:31.429Z,36.90
2018-06-05T04:04:35.148Z,38.80
2018-06-05T04:07:38.080Z,38.57
2018-06-05T04:10:41.012Z,38.97
2018-06-05T04:13:44.235Z,40.93
2018-06-05T04:16:49.921Z,43.67
2018-06-05T04:19:53.104Z,43.30
2018-06-05T04:22:56.080Z,44.33
2018-06-05T04:25:58.993Z,43.17
2018-06-05T04:29:02.008Z,41.90
2018-06-05T04:32:05.008Z,44.30
2018-06-05T04:35:07.887Z,45.27
2018-06-05T04:38:11.073Z,41.60
2018-06-05T04:41:14.896Z,43.77
2018-06-05T04:44:17.821Z,43.67
2018-06-05T04:47:20.719Z,44.60
2018-06-05T04:50:23.999Z,46.30
2018-06-05T04:53:26.945Z,46.43
2018-06-05T04:56:30.021Z,44.37
2018-06-05T04:59:32.962Z,47.83
2018-06-05T05:02:35.937Z,45.30
2018-06-05T05:05:38.955Z,48.17
2018-06-05T05:08:42.068Z,48.23
2018-06-05T05:11:45.546Z,50.33
2018-06-05T05:14:48.465Z,47.37
2018-06-05T05:17:51.408Z,46.10
2018-06-05T05:20:54.498Z,47.63
2018-06-05T05:23:57.439Z,46.77
2018-06-05T05:27:00.344Z,51.50
2018-06-05T05:30:03.802Z,49.90
2018-06-05T05:33:06.808Z,51.03
2018-06-05T05:36:09.894Z,53.30
2018-06-05T05:39:12.796Z,53.20
2018-06-05T05:42:16.387Z,54.70
2018-06-05T05:45:19.617Z,51.07
2018-06-05T05:48:22.635Z,52.50
2018-06-05T05:51:26.471Z,54.33
2018-06-05T05:54:29.449Z,58.50
2018-06-05T05:57:32.427Z,56.67
2018-06-05T06:00:35.361Z,56.63
2018-06-05T06:03:38.280Z,58.20
2018-06-05T06:06:41.221Z,57.30
2018-06-05T06:09:44.882Z,56.30
2018-06-05T06:12:47.831Z,53.27
2018-06-05T06:15:50.817Z,53.53
2018-06-05T06:18:53.701Z,53.83
2018-06-05T06:21:56.644Z,53.87
2018-06-05T06:24:59.639Z,54.60
2018-06-05T06:28:02.533Z,53.20
2018-06-05T06:31:05.541Z,54.90
2018-06-05T06:34:08.449Z,53.97
2018-06-05T06:37:11.354Z,53.80
2018-06-05T06:40:14.277Z,55.00
2018-06-05T06:43:17.192Z,51.47
2018-06-05T06:46:20.153Z,50.40
2018-06-05T06:49:23.116Z,47.80
2018-06-05T06:52:26.002Z,49.27
2018-06-05T06:55:28.973Z,47.77
2018-06-05T06:58:32.000Z,44.67
2018-06-05T07:01:34.930Z,47.73
2018-06-05T07:04:37.833Z,49.10
2018-06-05T07:07:40.759Z,60.10
2018-06-05T07:10:43.650Z,49.40
2018-06-05T07:13:46.537Z,48.80
2018-06-05T07:16:49.469Z,52.23
2018-06-05T07:19:52.480Z,47.80
2018-06-05T07:22:55.399Z,50.37
2018-06-05T07:25:58.332Z,44.40
2018-06-05T07:29:01.249Z,47.33
2018-06-05T07:32:04.215Z,46.70
2018-06-05T07:35:07.163Z,46.80
2018-06-05T07:38:10.096Z,51.30
2018-06-05T07:41:12.992Z,49.03
2018-06-05T07:44:15.932Z,49.67
2018-06-05T07:47:18.858Z,48.10
2018-06-05T07:50:21.750Z,44.93
2018-06-05T07:53:24.668Z,47.77
2018-06-05T07:56:27.598Z,47.00
2018-06-05T07:59:30.514Z,47.53
2018-06-05T08:02:33.387Z,48.17
2018-06-05T08:05:36.301Z,49.10
2018-06-05T08:08:39.237Z,46.43
2018-06-05T08:11:42.224Z,45.53
2018-06-05T08:14:45.144Z,46.37
2018-06-05T08:17:48.053Z,47.20
2018-06-05T08:20:50.954Z,46.37
2018-06-05T08:23:53.908Z,48.53
2018-06-05T08:26:56.824Z,46.77
2018-06-05T08:29:59.718Z,47.60
2018-06-05T08:33:02.677Z,50.67
2018-06-05T08:36:05.604Z,49.97
2018-06-05T08:39:08.602Z,58.87
2018-06-05T08:42:11.501Z,54.47
2018-06-05T08:45:14.484Z,54.27
2018-06-05T08:48:17.377Z,53.43
2018-06-05T08:51:20.318Z,57.83
2018-06-05T08:54:23.245Z,56.47
2018-06-05T08:57:26.177Z,49.00
2018-06-05T09:00:29.097Z,53.70
2018-06-05T09:03:31.994Z,59.47
2018-06-05T09:06:34.917Z,58.20
2018-06-05T09:09:37.843Z,57.47
2018-06-05T09:12:40.766Z,59.03
2018-06-05T09:15:43.676Z,57.13
2018-06-05T09:18:46.576Z,58.27
2018-06-05T09:21:50.369Z,54.67
2018-06-05T09:24:53.301Z,54.67
2018-06-05T09:27:56.237Z,59.20
2018-06-05T09:30:59.167Z,63.53
2018-06-05T09:34:02.110Z,64.93
2018-06-05T09:37:05.021Z,61.80
2018-06-05T09:40:08.002Z,54.33
2018-06-05T09:43:10.945Z,51.67
2018-06-05T09:46:13.842Z,49.53
2018-06-05T09:49:16.745Z,48.63
2018-06-05T09:52:19.661Z,43.27
2018-06-05T09:55:22.589Z,44.93
2018-06-05T09:58:25.698Z,40.90
2018-06-05T10:01:28.415Z,40.27
2018-06-05T10:04:31.372Z,40.93
2018-06-05T10:07:34.301Z,39.47
2018-06-05T10:10:37.201Z,40.10
2018-06-05T10:13:40.140Z,43.40
2018-06-05T10:16:43.054Z,40.53
2018-06-05T10:19:45.960Z,40.20
2018-06-05T10:22:48.872Z,42.10
2018-06-05T10:25:51.802Z,40.77
2018-06-05T10:28:54.682Z,36.63
2018-06-05T10:31:57.615Z,39.37
2018-06-05T10:35:00.514Z,38.33
2018-06-05T10:38:03.713Z,39.17
2018-06-05T10:41:06.666Z,37.80
2018-06-05T10:44:09.604Z,38.00
2018-06-05T10:47:12.508Z,36.77
2018-06-05T10:50:15.440Z,37.60
2018-06-05T10:53:18.387Z,35.70
2018-06-05T10:56:21.346Z,36.67
2018-06-05T10:59:24.875Z,37.10
2018-06-05T11:02:27.807Z,37.13
2018-06-05T11:05:30.718Z,36.43
2018-06-05T11:08:33.610Z,36.37
2018-06-05T11:11:36.529Z,35.13
2018-06-05T11:14:39.445Z,36.10
2018-06-05T11:17:42.364Z,35.67
2018-06-05T11:20:45.273Z,36.07
2018-06-05T11:23:48.236Z,38.37
2018-06-05T11:26:51.153Z,35.20
2018-06-05T11:29:54.076Z,35.67
2018-06-05T11:32:56.998Z,35.27
2018-06-05T11:35:59.924Z,38.47
2018-06-05T11:39:04.109Z,34.77
2018-06-05T11:42:07.010Z,34.93
2018-06-05T11:45:09.971Z,34.70
2018-06-05T11:48:12.902Z,37.13
2018-06-05T11:51:15.866Z,41.03
2018-06-05T11:54:18.820Z,40.20
2018-06-05T11:57:21.766Z,41.30
2018-06-05T12:00:24.712Z,40.90
2018-06-05T12:03:27.630Z,43.57
2018-06-05T12:06:30.545Z,44.20
2018-06-05T12:09:33.541Z,42.40
2018-06-05T12:12:36.469Z,45.17
2018-06-05T12:15:39.413Z,45.50
2018-06-05T12:18:42.324Z,36.20
2018-06-05T12:21:45.240Z,34.40
2018-06-05T12:24:48.131Z,34.57
2018-06-05T12:27:51.092Z,33.90
2018-06-05T12:30:54.021Z,32.20
2018-06-05T12:33:56.951Z,32.60
2018-06-05T12:36:59.969Z,35.07
2018-06-05T12:40:02.858Z,34.90
2018-06-05T12:43:05.892Z,33.73
2018-06-05T12:46:08.787Z,33.70
2018-06-05T12:49:11.740Z,36.43
2018-06-05T12:52:14.735Z,34.83
2018-06-05T12:55:17.639Z,34.27
2018-06-05T12:58:20.600Z,35.93
2018-06-05T13:01:23.516Z,33.07
2018-06-05T13:04:26.461Z,31.90
2018-06-05T13:07:30.166Z,32.90
2018-06-05T13:10:33.547Z,32.07
2018-06-05T13:13:36.829Z,32.37
2018-06-05T13:16:40.623Z,33.00
2018-06-05T13:19:43.692Z,32.20
2018-06-05T13:22:46.758Z,31.40
2018-06-05T13:25:49.613Z,31.17
2018-06-05T13:28:52.549Z,30.00
2018-06-05T13:31:55.548Z,30.20
2018-06-05T13:34:58.487Z,31.20
2018-06-05T13:38:01.468Z,29.37
2018-06-05T13:41:04.393Z,30.37
2018-06-05T13:44:07.438Z,32.83
2018-06-05T13:47:10.346Z,30.80
2018-06-05T13:50:13.261Z,31.47
2018-06-05T13:53:16.220Z,31.77
2018-06-05T13:56:19.131Z,35.60
2018-06-05T13:59:22.044Z,40.40
2018-06-05T14:02:24.979Z,36.50
2018-06-05T14:05:27.939Z,43.90
2018-06-05T14:08:30.858Z,39.40
2018-06-05T14:11:33.759Z,55.07
2018-06-05T14:14:36.717Z,36.90
2018-06-05T14:17:39.652Z,37.50
2018-06-05T14:20:42.620Z,35.17
2018-06-05T14:23:45.538Z,39.30
2018-06-05T14:26:48.478Z,43.77
2018-06-05T14:29:51.625Z,42.33
2018-06-05T14:32:54.537Z,41.33
2018-06-05T14:35:57.483Z,36.20
2018-06-05T14:39:00.500Z,37.80
2018-06-05T14:42:03.442Z,34.30
2018-06-05T14:45:06.408Z,35.63
2018-06-05T14:48:09.416Z,38.53
2018-06-05T14:51:12.325Z,37.70
2018-06-05T14:54:15.260Z,40.30
2018-06-05T14:57:18.161Z,46.40
2018-06-05T15:00:21.063Z,46.10
2018-06-05T15:03:23.974Z,47.67
2018-06-05T15:06:26.928Z,40.97
2018-06-05T15:09:29.833Z,40.97
2018-06-05T15:12:32.744Z,40.07
2018-06-05T15:15:35.669Z,40.50
2018-06-05T15:18:38.558Z,42.40
2018-06-05T15:21:41.488Z,42.80
2018-06-05T15:24:44.384Z,42.03
2018-06-05T15:27:47.344Z,39.23
2018-06-05T15:30:50.320Z,35.00
2018-06-05T15:33:53.297Z,36.87
2018-06-05T15:36:56.256Z,36.00
2018-06-05T15:39:59.153Z,35.40
2018-06-05T15:43:02.063Z,36.70
2018-06-05T15:46:05.167Z,34.53
2018-06-05T15:49:08.094Z,36.80
2018-06-05T15:52:11.005Z,50.33
2018-06-05T15:55:13.944Z,34.37
2018-06-05T15:58:16.869Z,33.87
2018-06-05T16:01:19.886Z,34.43
2018-06-05T16:04:22.869Z,34.20
2018-06-05T16:07:25.804Z,35.60
2018-06-05T16:10:28.750Z,34.60
2018-06-05T16:13:31.678Z,55.63
2018-06-05T16:16:34.577Z,44.87
2018-06-05T16:19:37.492Z,36.47
2018-06-05T16:22:40.430Z,35.30
2018-06-05T16:25:43.369Z,37.37
2018-06-05T16:28:46.257Z,35.43
2018-06-05T16:31:49.276Z,33.10
2018-06-05T16:34:52.190Z,28.27
2018-06-05T16:37:55.342Z,27.30
2018-06-05T16:40:58.733Z,29.57
2018-06-05T16:44:02.055Z,32.87
2018-06-05T16:47:05.089Z,34.10
2018-06-05T16:50:08.403Z,33.20
2018-06-05T16:53:11.344Z,29.07
2018-06-05T16:56:14.259Z,34.27
2018-06-05T16:59:17.230Z,27.60
2018-06-05T17:02:21.233Z,31.50
2018-06-05T17:05:24.179Z,29.40
2018-06-05T17:08:27.402Z,32.60
2018-06-05T17:11:30.611Z,26.53
2018-06-05T17:14:33.926Z,30.50
2018-06-05T17:17:36.893Z,32.60
2018-06-05T17:20:40.550Z,31.03
2018-06-05T17:23:43.918Z,27.67
2018-06-05T17:26:48.017Z,24.97
2018-06-05T17:29:51.009Z,31.57
2018-06-05T17:32:54.348Z,25.47
2018-06-05T17:35:58.158Z,25.10
2018-06-05T17:39:02.065Z,33.87
2018-06-05T17:42:05.434Z,25.07
2018-06-05T17:45:09.147Z,33.30
2018-06-05T17:48:12.710Z,33.57
2018-06-05T17:51:16.312Z,29.37
2018-06-05T17:54:19.392Z,34.07
2018-06-05T17:57:22.953Z,32.50
2018-06-05T18:00:26.339Z,30.30
2018-06-05T18:03:29.666Z,29.07
2018-06-05T18:06:33.189Z,31.50
2018-06-05T18:09:36.309Z,32.20
2018-06-05T18:12:39.235Z,32.07
2018-06-05T18:15:42.836Z,34.00
2018-06-05T18:18:47.052Z,36.23
2018-06-05T18:21:51.017Z,36.27
2018-06-05T18:24:54.516Z,37.97
2018-06-05T18:27:57.709Z,35.30
2018-06-05T18:31:01.150Z,34.83
2018-06-05T18:34:04.713Z,36.07
2018-06-05T18:37:08.611Z,35.70
2018-06-05T18:40:11.964Z,36.07
2018-06-05T18:43:15.812Z,32.70
2018-06-05T18:46:19.254Z,36.83
2018-06-05T18:49:22.828Z,33.90
2018-06-05T18:52:26.378Z,33.10
2018-06-05T18:55:29.915Z,35.30
2018-06-05T18:58:33.523Z,35.20
2018-06-05T19:01:36.711Z,34.63
2018-06-05T19:04:40.161Z,35.17
2018-06-05T19:07:43.857Z,36.87
2018-06-05T19:10:47.077Z,35.07
2018-06-05T19:13:50.347Z,34.53
2018-06-05T19:16:53.354Z,34.60
2018-06-05T19:19:56.907Z,33.67
2018-06-05T19:23:00.174Z,32.83
2018-06-05T19:26:03.420Z,32.03
2018-06-05T19:29:07.125Z,33.83
2018-06-05T19:32:10.522Z,32.23
2018-06-05T19:35:13.734Z,33.27
2018-06-05T19:38:17.110Z,30.80
2018-06-05T19:41:22.217Z,34.27
2018-06-05T19:44:26.582Z,32.83
2018-06-05T19:47:29.984Z,30.93
2018-06-05T19:50:33.061Z,31.37
2018-06-05T19:53:36.712Z,32.47
2018-06-05T19:56:40.387Z,31.93
2018-06-05T19:59:44.009Z,32.07
2018-06-05T20:02:48.116Z,32.63
2018-06-05T20:05:50.507Z,31.70
2018-06-05T20:08:53.901Z,31.27
2018-06-05T20:11:58.205Z,31.37
2018-06-05T20:15:01.475Z,34.40
2018-06-05T20:18:04.776Z,31.67
2018-06-05T20:21:08.005Z,31.80
2018-06-05T20:24:11.787Z,33.50
2018-06-05T20:27:15.555Z,33.13
2018-06-05T20:30:19.014Z,32.13
2018-06-05T20:33:22.355Z,68.33
2018-06-05T20:36:25.380Z,143.43
2018-06-05T20:39:28.707Z,32.80
2018-06-05T20:42:31.615Z,31.67
2018-06-05T20:45:34.874Z,32.50
2018-06-05T20:48:37.798Z,30.67
2018-06-05T20:51:40.757Z,32.47
2018-06-05T20:54:43.675Z,28.43
2018-06-05T20:57:46.616Z,30.17
2018-06-05T21:00:49.569Z,29.73
2018-06-05T21:03:52.515Z,31.50
2018-06-05T21:06:55.442Z,31.47
2018-06-05T21:09:58.801Z,32.60
2018-06-05T21:13:01.738Z,29.53
2018-06-05T21:16:04.704Z,29.20
2018-06-05T21:19:07.618Z,29.10
2018-06-05T21:22:11.233Z,29.23
2018-06-05T21:25:14.268Z,29.80
2018-06-05T21:28:17.195Z,29.57
2018-06-05T21:31:20.185Z,27.50
2018-06-05T21:34:23.172Z,31.10
2018-06-05T21:37:26.250Z,28.90
2018-06-05T21:40:29.228Z,29.37
2018-06-05T21:43:32.354Z,28.47
2018-06-05T21:46:35.694Z,29.33
2018-06-05T21:49:38.877Z,29.70
2018-06-05T21:52:41.818Z,29.43
2018-06-05T21:55:44.758Z,27.70
2018-06-05T21:58:47.749Z,29.00
2018-06-05T22:01:50.694Z,28.57
2018-06-05T22:04:53.638Z,28.23
2018-06-05T22:08:00.538Z,28.80
2018-06-05T22:11:03.557Z,26.50
2018-06-05T22:14:08.778Z,28.33
2018-06-05T22:17:11.677Z,29.20
2018-06-05T22:20:14.595Z,29.13
2018-06-05T22:23:17.498Z,26.60
2018-06-05T22:26:20.928Z,27.77
2018-06-05T22:29:24.871Z,27.03
2018-06-05T22:32:27.814Z,26.27
2018-06-05T22:35:30.761Z,25.00
2018-06-05T22:38:33.677Z,25.87
2018-06-05T22:41:36.600Z,27.67
2018-06-05T22:44:39.506Z,26.90
2018-06-05T22:47:42.429Z,28.20
2018-06-05T22:50:45.340Z,26.70
2018-06-05T22:53:48.263Z,28.27
2018-06-05T22:56:51.240Z,28.80
2018-06-05T22:59:54.161Z,26.13
2018-06-05T23:02:57.091Z,27.90
2018-06-05T23:05:59.989Z,26.10
2018-06-05T23:09:03.550Z,26.70
2018-06-05T23:12:06.478Z,27.53
2018-06-05T23:15:09.406Z,29.67
2018-06-05T23:18:12.300Z,26.10
2018-06-05T23:21:15.244Z,27.20
2018-06-05T23:24:18.171Z,27.10
2018-06-05T23:27:21.166Z,27.70
2018-06-05T23:30:24.048Z,28.10
2018-06-05T23:33:26.992Z,28.70
2018-06-05T23:36:29.925Z,26.90
2018-06-05T23:39:32.862Z,29.60
2018-06-05T23:42:35.801Z,28.77
2018-06-05T23:45:38.745Z,28.17
2018-06-05T23:48:41.729Z,29.30
2018-06-05T23:51:44.661Z,27.30
2018-06-05T23:54:47.575Z,29.20
2018-06-05T23:57:50.517Z,30.47
